sensor_id;sensor_type;location;lat;lon;timestamp;temperature;humidity
3816;DHT22;1923;48.154;11.536;2023-04-03T00:00:51;4.00;99.90
3816;DHT22;1923;48.154;11.536;2023-04-03T00:03:19;4.00;99.90
3816;DHT22;1923;48.154;11.536;2023-04-03T00:05:49;4.00;99.90
3816;DHT22;1923;48.154;11.536;2023-04-03T00:08:17;4.00;99.90
3816;DHT22;1923;48.154;11.536;2023-04-03T00:10:46;4.10;99.90
3816;DHT22;1923;48.154;11.536;2023-04-03T00:13:16;4.10;99.90
3816;DHT22;1923;48.154;11.536;2023-04-03T00:15:44;4.20;99.90
3816;DHT22;1923;48.154;11.536;2023-04-03T00:18:12;4.10;99.90
3816;DHT22;1923;48.154;11.536;2023-04-03T00:20:41;4.20;99.90
3816;DHT22;1923;48.154;11.536;2023-04-03T00:23:10;4.20;99.90
3816;DHT22;1923;48.154;11.536;2023-04-03T00:25:38;4.00;99.90
3816;DHT22;1923;48.154;11.536;2023-04-03T00:28:06;3.90;99.90
3816;DHT22;1923;48.154;11.536;2023-04-03T00:30:35;3.90;99.90
3816;DHT22;1923;48.154;11.536;2023-04-03T00:33:03;3.80;99.90
3816;DHT22;1923;48.154;11.536;2023-04-03T00:35:33;3.80;99.90
3816;DHT22;1923;48.154;11.536;2023-04-03T00:38:02;3.80;99.90
3816;DHT22;1923;48.154;11.536;2023-04-03T00:40:39;3.90;99.90
3816;DHT22;1923;48.154;11.536;2023-04-03T00:43:12;3.80;99.90
3816;DHT22;1923;48.154;11.536;2023-04-03T00:45:42;3.80;99.90
3816;DHT22;1923;48.154;11.536;2023-04-03T00:48:13;3.80;99.90
3816;DHT22;1923;48.154;11.536;2023-04-03T00:50:43;3.90;99.90
3816;DHT22;1923;48.154;11.536;2023-04-03T00:53:15;3.90;99.90
3816;DHT22;1923;48.154;11.536;2023-04-03T00:55:47;4.00;99.90
3816;DHT22;1923;48.154;11.536;2023-04-03T00:58:17;3.90;99.90
3816;DHT22;1923;48.154;11.536;2023-04-03T01:00:52;3.90;99.90
3816;DHT22;1923;48.154;11.536;2023-04-03T01:03:24;3.90;99.90
3816;DHT22;1923;48.154;11.536;2023-04-03T01:05:52;3.90;99.90
3816;DHT22;1923;48.154;11.536;2023-04-03T01:08:20;4.00;99.90
3816;DHT22;1923;48.154;11.536;2023-04-03T01:10:50;3.80;99.90
3816;DHT22;1923;48.154;11.536;2023-04-03T01:13:21;3.90;99.90
3816;DHT22;1923;48.154;11.536;2023-04-03T01:15:50;3.90;99.90
3816;DHT22;1923;48.154;11.536;2023-04-03T01:18:18;3.80;99.90
3816;DHT22;1923;48.154;11.536;2023-04-03T01:21:25;3.90;99.90
3816;DHT22;1923;48.154;11.536;2023-04-03T09:57:58;5.80;99.90
3816;DHT22;1923;48.154;11.536;2023-04-03T10:00:31;6.80;99.90
3816;DHT22;1923;48.154;11.536;2023-04-03T10:03:01;6.70;99.90
3816;DHT22;1923;48.154;11.536;2023-04-03T10:05:33;6.60;99.90
3816;DHT22;1923;48.154;11.536;2023-04-03T10:08:20;6.50;99.90
3816;DHT22;1923;48.154;11.536;2023-04-03T10:11:07;6.50;99.90
3816;DHT22;1923;48.154;11.536;2023-04-03T10:13:50;6.50;99.90
3816;DHT22;1923;48.154;11.536;2023-04-03T10:16:21;6.50;99.90
3816;DHT22;1923;48.154;11.536;2023-04-03T10:18:59;6.00;99.90
3816;DHT22;1923;48.154;11.536;2023-04-03T10:21:37;5.80;99.90
3816;DHT22;1923;48.154;11.536;2023-04-03T10:24:12;5.80;99.90
3816;DHT22;1923;48.154;11.536;2023-04-03T10:26:47;5.80;99.90
3816;DHT22;1923;48.154;11.536;2023-04-03T10:29:27;5.90;99.90
3816;DHT22;1923;48.154;11.536;2023-04-03T10:32:02;5.80;99.90
3816;DHT22;1923;48.154;11.536;2023-04-03T10:34:35;5.90;99.90
3816;DHT22;1923;48.154;11.536;2023-04-03T10:37:13;5.90;99.90
3816;DHT22;1923;48.154;11.536;2023-04-03T10:39:50;5.60;99.90
3816;DHT22;1923;48.154;11.536;2023-04-03T10:42:28;5.70;99.90
3816;DHT22;1923;48.154;11.536;2023-04-03T10:45:15;5.70;99.90
3816;DHT22;1923;48.154;11.536;2023-04-03T10:47:53;5.80;99.90
3816;DHT22;1923;48.154;11.536;2023-04-03T10:50:31;5.40;99.90
3816;DHT22;1923;48.154;11.536;2023-04-03T10:53:08;5.30;99.90
3816;DHT22;1923;48.154;11.536;2023-04-03T10:55:42;5.20;99.90
3816;DHT22;1923;48.154;11.536;2023-04-03T10:58:19;5.30;99.90
3816;DHT22;1923;48.154;11.536;2023-04-03T11:00:52;5.20;99.90
3816;DHT22;1923;48.154;11.536;2023-04-03T11:03:29;5.30;99.90
3816;DHT22;1923;48.154;11.536;2023-04-03T11:06:02;5.20;99.90
3816;DHT22;1923;48.154;11.536;2023-04-03T11:08:34;5.10;99.90
3816;DHT22;1923;48.154;11.536;2023-04-03T11:11:06;5.20;99.90
3816;DHT22;1923;48.154;11.536;2023-04-03T11:13:40;5.00;99.90
3816;DHT22;1923;48.154;11.536;2023-04-03T11:16:16;5.00;99.90
3816;DHT22;1923;48.154;11.536;2023-04-03T11:18:49;5.10;99.90
3816;DHT22;1923;48.154;11.536;2023-04-03T11:21:22;5.20;99.90
3816;DHT22;1923;48.154;11.536;2023-04-03T11:23:56;5.10;99.90
3816;DHT22;1923;48.154;11.536;2023-04-03T11:26:29;5.30;99.90
3816;DHT22;1923;48.154;11.536;2023-04-03T11:29:02;5.10;99.90
3816;DHT22;1923;48.154;11.536;2023-04-03T11:31:45;5.10;99.90
3816;DHT22;1923;48.154;11.536;2023-04-03T11:34:26;5.20;99.90
3816;DHT22;1923;48.154;11.536;2023-04-03T11:36:59;5.40;99.90
3816;DHT22;1923;48.154;11.536;2023-04-03T11:39:30;5.60;99.90
3816;DHT22;1923;48.154;11.536;2023-04-03T11:42:15;6.00;99.90
3816;DHT22;1923;48.154;11.536;2023-04-03T11:44:44;6.20;99.90
3816;DHT22;1923;48.154;11.536;2023-04-03T11:47:43;6.40;99.90
3816;DHT22;1923;48.154;11.536;2023-04-03T11:50:31;6.70;99.90
3816;DHT22;1923;48.154;11.536;2023-04-03T11:53:28;6.80;99.90
3816;DHT22;1923;48.154;11.536;2023-04-03T11:55:58;6.70;99.90
3816;DHT22;1923;48.154;11.536;2023-04-03T11:58:29;6.60;99.90
3816;DHT22;1923;48.154;11.536;2023-04-03T12:01:02;6.90;99.90
3816;DHT22;1923;48.154;11.536;2023-04-03T12:10:02;7.40;99.90
3816;DHT22;1923;48.154;11.536;2023-04-03T12:12:34;7.40;99.90
3816;DHT22;1923;48.154;11.536;2023-04-03T12:18:37;7.40;99.90
3816;DHT22;1923;48.154;11.536;2023-04-03T12:21:07;7.00;99.90
3816;DHT22;1923;48.154;11.536;2023-04-03T12:23:37;6.90;99.90
3816;DHT22;1923;48.154;11.536;2023-04-03T12:26:26;7.00;99.90
3816;DHT22;1923;48.154;11.536;2023-04-03T12:29:17;7.20;99.90
3816;DHT22;1923;48.154;11.536;2023-04-03T12:31:55;7.30;99.90
3816;DHT22;1923;48.154;11.536;2023-04-03T12:34:44;7.40;99.90
3816;DHT22;1923;48.154;11.536;2023-04-03T12:37:32;7.30;99.90
3816;DHT22;1923;48.154;11.536;2023-04-03T12:40:10;7.10;99.90
3816;DHT22;1923;48.154;11.536;2023-04-03T12:43:02;7.20;99.90
3816;DHT22;1923;48.154;11.536;2023-04-03T12:45:41;7.40;99.90
3816;DHT22;1923;48.154;11.536;2023-04-03T12:48:15;7.50;99.90
3816;DHT22;1923;48.154;11.536;2023-04-03T12:50:47;7.80;99.90
3816;DHT22;1923;48.154;11.536;2023-04-03T12:53:18;7.80;99.90
3816;DHT22;1923;48.154;11.536;2023-04-03T12:55:47;8.00;99.90
3816;DHT22;1923;48.154;11.536;2023-04-03T12:58:19;7.80;99.10
3816;DHT22;1923;48.154;11.536;2023-04-03T13:01:00;7.40;98.90
3816;DHT22;1923;48.154;11.536;2023-04-03T13:03:29;7.40;98.80
3816;DHT22;1923;48.154;11.536;2023-04-03T13:06:03;7.40;99.20
3816;DHT22;1923;48.154;11.536;2023-04-03T13:08:32;7.60;99.90
3816;DHT22;1923;48.154;11.536;2023-04-03T13:11:02;7.80;99.80
3816;DHT22;1923;48.154;11.536;2023-04-03T13:13:31;7.70;99.50
3816;DHT22;1923;48.154;11.536;2023-04-03T13:15:59;7.40;99.90
3816;DHT22;1923;48.154;11.536;2023-04-03T13:18:37;7.20;99.90
3816;DHT22;1923;48.154;11.536;2023-04-03T13:21:12;7.30;99.90
3816;DHT22;1923;48.154;11.536;2023-04-03T13:23:44;7.30;99.90
3816;DHT22;1923;48.154;11.536;2023-04-03T13:26:15;7.40;99.90
3816;DHT22;1923;48.154;11.536;2023-04-03T13:28:44;7.60;99.40
3816;DHT22;1923;48.154;11.536;2023-04-03T13:31:20;7.40;98.10
3816;DHT22;1923;48.154;11.536;2023-04-03T13:33:54;7.30;98.40
3816;DHT22;1923;48.154;11.536;2023-04-03T13:36:27;7.40;98.40
3816;DHT22;1923;48.154;11.536;2023-04-03T13:39:04;7.40;99.40
3816;DHT22;1923;48.154;11.536;2023-04-03T13:41:33;7.50;99.20
3816;DHT22;1923;48.154;11.536;2023-04-03T13:44:33;7.50;99.10
3816;DHT22;1923;48.154;11.536;2023-04-03T13:47:16;7.20;99.90
3816;DHT22;1923;48.154;11.536;2023-04-03T13:49:46;7.10;99.90
3816;DHT22;1923;48.154;11.536;2023-04-03T13:52:29;6.90;99.90
3816;DHT22;1923;48.154;11.536;2023-04-03T13:55:00;6.50;99.90
3816;DHT22;1923;48.154;11.536;2023-04-03T13:57:33;6.40;99.90
3816;DHT22;1923;48.154;11.536;2023-04-03T14:00:21;6.50;99.90
3816;DHT22;1923;48.154;11.536;2023-04-03T14:02:49;6.80;99.90
3816;DHT22;1923;48.154;11.536;2023-04-03T14:05:17;6.50;99.80
3816;DHT22;1923;48.154;11.536;2023-04-03T14:07:49;6.50;99.70
3816;DHT22;1923;48.154;11.536;2023-04-03T14:10:17;6.60;99.80
3816;DHT22;1923;48.154;11.536;2023-04-03T14:12:46;6.50;99.70
3816;DHT22;1923;48.154;11.536;2023-04-03T14:15:19;6.50;99.70
3816;DHT22;1923;48.154;11.536;2023-04-03T14:17:48;6.30;99.30
3816;DHT22;1923;48.154;11.536;2023-04-03T14:20:18;6.50;99.90
3816;DHT22;1923;48.154;11.536;2023-04-03T14:22:46;6.80;99.90
3816;DHT22;1923;48.154;11.536;2023-04-03T14:25:17;7.00;99.90
3816;DHT22;1923;48.154;11.536;2023-04-03T14:27:47;7.20;99.60
3816;DHT22;1923;48.154;11.536;2023-04-03T14:30:19;7.30;99.80
3816;DHT22;1923;48.154;11.536;2023-04-03T14:32:48;7.30;98.70
3816;DHT22;1923;48.154;11.536;2023-04-03T14:35:17;7.20;97.90
3816;DHT22;1923;48.154;11.536;2023-04-03T14:37:50;7.20;98.60
3816;DHT22;1923;48.154;11.536;2023-04-03T14:40:22;7.30;98.30
3816;DHT22;1923;48.154;11.536;2023-04-03T14:42:51;7.40;97.70
3816;DHT22;1923;48.154;11.536;2023-04-03T14:45:22;7.40;97.90
3816;DHT22;1923;48.154;11.536;2023-04-03T14:47:52;7.40;96.70
3816;DHT22;1923;48.154;11.536;2023-04-03T14:50:23;7.50;97.00
3816;DHT22;1923;48.154;11.536;2023-04-03T14:52:54;7.70;96.70
3816;DHT22;1923;48.154;11.536;2023-04-03T14:55:25;7.60;96.30
3816;DHT22;1923;48.154;11.536;2023-04-03T14:57:53;7.50;96.60
3816;DHT22;1923;48.154;11.536;2023-04-03T15:00:22;7.40;96.40
3816;DHT22;1923;48.154;11.536;2023-04-03T15:02:51;7.30;96.80
3816;DHT22;1923;48.154;11.536;2023-04-03T15:05:19;7.10;96.70
3816;DHT22;1923;48.154;11.536;2023-04-03T15:07:50;7.20;97.20
3816;DHT22;1923;48.154;11.536;2023-04-03T15:10:23;7.30;96.90
3816;DHT22;1923;48.154;11.536;2023-04-03T15:12:52;7.40;95.70
3816;DHT22;1923;48.154;11.536;2023-04-03T15:15:22;7.40;95.20
3816;DHT22;1923;48.154;11.536;2023-04-03T15:17:52;7.30;95.00
3816;DHT22;1923;48.154;11.536;2023-04-03T15:20:23;7.30;94.80
3816;DHT22;1923;48.154;11.536;2023-04-03T15:22:52;7.10;94.40
3816;DHT22;1923;48.154;11.536;2023-04-03T15:25:20;7.00;95.00
3816;DHT22;1923;48.154;11.536;2023-04-03T15:27:49;7.10;95.50
3816;DHT22;1923;48.154;11.536;2023-04-03T15:30:18;7.10;94.80
3816;DHT22;1923;48.154;11.536;2023-04-03T15:32:47;7.00;94.60
3816;DHT22;1923;48.154;11.536;2023-04-03T15:35:16;6.70;93.30
3816;DHT22;1923;48.154;11.536;2023-04-03T15:37:44;6.50;93.70
3816;DHT22;1923;48.154;11.536;2023-04-03T15:40:12;6.50;93.70
3816;DHT22;1923;48.154;11.536;2023-04-03T15:42:40;6.40;94.40
3816;DHT22;1923;48.154;11.536;2023-04-03T15:45:10;6.50;94.70
3816;DHT22;1923;48.154;11.536;2023-04-03T15:47:38;6.60;95.10
3816;DHT22;1923;48.154;11.536;2023-04-03T15:50:07;6.60;94.70
3816;DHT22;1923;48.154;11.536;2023-04-03T15:52:35;6.60;94.50
3816;DHT22;1923;48.154;11.536;2023-04-03T15:55:04;6.70;93.90
3816;DHT22;1923;48.154;11.536;2023-04-03T15:57:32;6.60;93.70
3816;DHT22;1923;48.154;11.536;2023-04-03T16:00:00;6.70;93.60
3816;DHT22;1923;48.154;11.536;2023-04-03T16:02:31;6.70;93.30
3816;DHT22;1923;48.154;11.536;2023-04-03T16:04:59;6.70;92.40
3816;DHT22;1923;48.154;11.536;2023-04-03T16:07:27;6.60;92.30
3816;DHT22;1923;48.154;11.536;2023-04-03T16:09:56;6.60;93.80
3816;DHT22;1923;48.154;11.536;2023-04-03T16:12:24;6.40;94.00
3816;DHT22;1923;48.154;11.536;2023-04-03T16:14:52;6.20;94.20
3816;DHT22;1923;48.154;11.536;2023-04-03T16:17:20;6.10;94.50
3816;DHT22;1923;48.154;11.536;2023-04-03T16:19:49;6.20;95.00
3816;DHT22;1923;48.154;11.536;2023-04-03T16:22:17;6.20;94.30
3816;DHT22;1923;48.154;11.536;2023-04-03T16:24:46;6.30;94.70
3816;DHT22;1923;48.154;11.536;2023-04-03T16:27:14;6.20;94.00
3816;DHT22;1923;48.154;11.536;2023-04-03T16:29:42;6.20;94.70
3816;DHT22;1923;48.154;11.536;2023-04-03T16:32:10;5.90;94.20
3816;DHT22;1923;48.154;11.536;2023-04-03T16:34:39;5.90;93.70
3816;DHT22;1923;48.154;11.536;2023-04-03T16:37:09;5.70;94.60
3816;DHT22;1923;48.154;11.536;2023-04-03T16:39:38;5.70;95.00
3816;DHT22;1923;48.154;11.536;2023-04-03T16:42:06;5.70;94.50
3816;DHT22;1923;48.154;11.536;2023-04-03T16:44:36;5.60;94.00
3816;DHT22;1923;48.154;11.536;2023-04-03T16:47:04;5.60;93.90
3816;DHT22;1923;48.154;11.536;2023-04-03T16:49:32;5.70;94.20
3816;DHT22;1923;48.154;11.536;2023-04-03T16:52:02;5.70;94.40
3816;DHT22;1923;48.154;11.536;2023-04-03T16:54:32;5.70;94.00
3816;DHT22;1923;48.154;11.536;2023-04-03T16:57:00;5.70;93.10
3816;DHT22;1923;48.154;11.536;2023-04-03T16:59:28;5.70;93.60
3816;DHT22;1923;48.154;11.536;2023-04-03T17:01:56;5.60;94.10
3816;DHT22;1923;48.154;11.536;2023-04-03T17:04:24;5.50;94.40
3816;DHT22;1923;48.154;11.536;2023-04-03T17:06:52;5.50;95.00
3816;DHT22;1923;48.154;11.536;2023-04-03T17:09:21;5.40;95.10
3816;DHT22;1923;48.154;11.536;2023-04-03T17:11:50;5.40;95.40
3816;DHT22;1923;48.154;11.536;2023-04-03T17:14:18;5.50;95.20
3816;DHT22;1923;48.154;11.536;2023-04-03T17:16:46;5.40;94.50
3816;DHT22;1923;48.154;11.536;2023-04-03T17:19:14;5.40;95.80
3816;DHT22;1923;48.154;11.536;2023-04-03T17:21:44;5.40;95.50
3816;DHT22;1923;48.154;11.536;2023-04-03T17:24:13;5.50;95.50
3816;DHT22;1923;48.154;11.536;2023-04-03T17:26:42;5.40;95.40
3816;DHT22;1923;48.154;11.536;2023-04-03T17:29:11;5.30;95.20
3816;DHT22;1923;48.154;11.536;2023-04-03T17:31:39;5.20;95.50
3816;DHT22;1923;48.154;11.536;2023-04-03T17:34:08;5.30;96.50
3816;DHT22;1923;48.154;11.536;2023-04-03T17:36:38;5.30;96.60
3816;DHT22;1923;48.154;11.536;2023-04-03T17:39:06;5.30;97.20
3816;DHT22;1923;48.154;11.536;2023-04-03T17:41:35;5.30;97.60
3816;DHT22;1923;48.154;11.536;2023-04-03T17:44:03;5.30;97.10
3816;DHT22;1923;48.154;11.536;2023-04-03T17:46:32;5.20;97.60
3816;DHT22;1923;48.154;11.536;2023-04-03T17:49:01;5.10;97.50
3816;DHT22;1923;48.154;11.536;2023-04-03T17:51:30;5.00;97.90
3816;DHT22;1923;48.154;11.536;2023-04-03T17:54:00;5.00;97.00
3816;DHT22;1923;48.154;11.536;2023-04-03T17:56:28;5.10;96.90
3816;DHT22;1923;48.154;11.536;2023-04-03T17:58:57;5.10;97.00
3816;DHT22;1923;48.154;11.536;2023-04-03T18:01:27;4.90;96.40
3816;DHT22;1923;48.154;11.536;2023-04-03T18:04:00;5.00;97.30
3816;DHT22;1923;48.154;11.536;2023-04-03T18:06:31;4.90;97.00
3816;DHT22;1923;48.154;11.536;2023-04-03T18:09:03;4.80;97.00
3816;DHT22;1923;48.154;11.536;2023-04-03T18:11:32;4.80;97.20
3816;DHT22;1923;48.154;11.536;2023-04-03T18:14:01;4.60;97.50
3816;DHT22;1923;48.154;11.536;2023-04-03T18:16:30;4.70;98.30
3816;DHT22;1923;48.154;11.536;2023-04-03T18:19:01;4.60;98.10
3816;DHT22;1923;48.154;11.536;2023-04-03T18:21:48;4.70;98.20
3816;DHT22;1923;48.154;11.536;2023-04-03T18:24:17;4.80;97.90
3816;DHT22;1923;48.154;11.536;2023-04-03T18:26:48;4.80;97.70
3816;DHT22;1923;48.154;11.536;2023-04-03T18:29:18;4.70;97.60
3816;DHT22;1923;48.154;11.536;2023-04-03T18:31:49;4.70;98.00
3816;DHT22;1923;48.154;11.536;2023-04-03T18:34:19;4.50;97.90
3816;DHT22;1923;48.154;11.536;2023-04-03T18:36:48;4.30;97.80
3816;DHT22;1923;48.154;11.536;2023-04-03T18:39:16;4.20;98.20
3816;DHT22;1923;48.154;11.536;2023-04-03T18:41:44;4.20;98.40
3816;DHT22;1923;48.154;11.536;2023-04-03T18:44:15;4.30;99.30
3816;DHT22;1923;48.154;11.536;2023-04-03T18:46:45;4.40;98.70
3816;DHT22;1923;48.154;11.536;2023-04-03T18:49:13;4.30;98.90
3816;DHT22;1923;48.154;11.536;2023-04-03T18:51:45;4.40;98.80
3816;DHT22;1923;48.154;11.536;2023-04-03T18:54:13;4.30;98.70
3816;DHT22;1923;48.154;11.536;2023-04-03T18:56:42;4.30;99.00
3816;DHT22;1923;48.154;11.536;2023-04-03T18:59:10;4.10;99.50
3816;DHT22;1923;48.154;11.536;2023-04-03T19:01:39;4.20;99.00
3816;DHT22;1923;48.154;11.536;2023-04-03T19:04:07;4.30;98.90
3816;DHT22;1923;48.154;11.536;2023-04-03T19:06:36;4.20;99.40
3816;DHT22;1923;48.154;11.536;2023-04-03T19:09:06;4.20;99.40
3816;DHT22;1923;48.154;11.536;2023-04-03T19:11:34;4.10;99.20
3816;DHT22;1923;48.154;11.536;2023-04-03T19:14:03;4.10;99.20
3816;DHT22;1923;48.154;11.536;2023-04-03T19:16:42;4.00;99.20
3816;DHT22;1923;48.154;11.536;2023-04-03T19:19:10;3.90;99.20
3816;DHT22;1923;48.154;11.536;2023-04-03T19:21:39;3.90;99.60
3816;DHT22;1923;48.154;11.536;2023-04-03T19:24:10;3.80;99.50
3816;DHT22;1923;48.154;11.536;2023-04-03T19:26:38;3.80;99.90
3816;DHT22;1923;48.154;11.536;2023-04-03T19:29:07;3.80;99.90
3816;DHT22;1923;48.154;11.536;2023-04-03T19:31:36;3.80;99.90
3816;DHT22;1923;48.154;11.536;2023-04-03T19:34:05;3.70;99.90
3816;DHT22;1923;48.154;11.536;2023-04-03T19:36:33;3.50;99.90
3816;DHT22;1923;48.154;11.536;2023-04-03T19:39:02;3.50;99.90
3816;DHT22;1923;48.154;11.536;2023-04-03T19:41:34;3.50;99.90
3816;DHT22;1923;48.154;11.536;2023-04-03T19:44:04;3.40;99.90
3816;DHT22;1923;48.154;11.536;2023-04-03T19:46:33;3.20;99.90
3816;DHT22;1923;48.154;11.536;2023-04-03T19:49:02;3.10;99.90
3816;DHT22;1923;48.154;11.536;2023-04-03T19:51:30;3.20;99.90
3816;DHT22;1923;48.154;11.536;2023-04-03T19:53:58;3.20;99.90
3816;DHT22;1923;48.154;11.536;2023-04-03T19:56:26;3.10;99.90
3816;DHT22;1923;48.154;11.536;2023-04-03T19:58:56;2.90;99.90
3816;DHT22;1923;48.154;11.536;2023-04-03T20:01:24;2.90;99.90
3816;DHT22;1923;48.154;11.536;2023-04-03T20:03:55;3.10;99.90
3816;DHT22;1923;48.154;11.536;2023-04-03T20:06:24;2.90;99.90
3816;DHT22;1923;48.154;11.536;2023-04-03T20:08:52;3.00;99.90
3816;DHT22;1923;48.154;11.536;2023-04-03T20:11:20;2.90;99.90
3816;DHT22;1923;48.154;11.536;2023-04-03T20:13:50;2.90;99.90
3816;DHT22;1923;48.154;11.536;2023-04-03T20:16:20;2.90;99.90
3816;DHT22;1923;48.154;11.536;2023-04-03T20:18:51;2.90;99.90
3816;DHT22;1923;48.154;11.536;2023-04-03T20:21:26;2.80;99.90
3816;DHT22;1923;48.154;11.536;2023-04-03T20:23:55;2.80;99.90
3816;DHT22;1923;48.154;11.536;2023-04-03T20:26:24;2.80;99.90
3816;DHT22;1923;48.154;11.536;2023-04-03T20:28:54;2.70;99.90
3816;DHT22;1923;48.154;11.536;2023-04-03T20:31:25;2.70;99.90
3816;DHT22;1923;48.154;11.536;2023-04-03T20:33:53;2.70;99.90
3816;DHT22;1923;48.154;11.536;2023-04-03T20:36:22;2.70;99.90
3816;DHT22;1923;48.154;11.536;2023-04-03T20:38:52;2.70;99.90
3816;DHT22;1923;48.154;11.536;2023-04-03T20:41:20;2.70;99.90
3816;DHT22;1923;48.154;11.536;2023-04-03T20:43:49;2.70;99.90
3816;DHT22;1923;48.154;11.536;2023-04-03T20:46:17;2.60;99.90
3816;DHT22;1923;48.154;11.536;2023-04-03T20:48:47;2.50;99.90
3816;DHT22;1923;48.154;11.536;2023-04-03T20:51:17;2.40;99.90
3816;DHT22;1923;48.154;11.536;2023-04-03T20:53:46;2.30;99.90
3816;DHT22;1923;48.154;11.536;2023-04-03T20:56:15;2.30;99.90
3816;DHT22;1923;48.154;11.536;2023-04-03T20:58:43;2.20;99.90
3816;DHT22;1923;48.154;11.536;2023-04-03T21:01:13;2.30;99.90
3816;DHT22;1923;48.154;11.536;2023-04-03T21:03:41;2.20;99.90
3816;DHT22;1923;48.154;11.536;2023-04-03T21:21:25;1.90;99.90
3816;DHT22;1923;48.154;11.536;2023-04-03T21:23:54;1.90;99.90
3816;DHT22;1923;48.154;11.536;2023-04-03T21:26:22;1.80;99.90
3816;DHT22;1923;48.154;11.536;2023-04-03T21:28:53;1.90;99.90
3816;DHT22;1923;48.154;11.536;2023-04-03T21:31:21;1.90;99.90
3816;DHT22;1923;48.154;11.536;2023-04-03T21:33:50;2.00;99.90
3816;DHT22;1923;48.154;11.536;2023-04-03T21:36:20;2.00;99.90
3816;DHT22;1923;48.154;11.536;2023-04-03T21:38:48;2.10;99.90
3816;DHT22;1923;48.154;11.536;2023-04-03T21:41:17;2.10;99.90
3816;DHT22;1923;48.154;11.536;2023-04-03T21:43:45;2.20;99.90
3816;DHT22;1923;48.154;11.536;2023-04-03T21:46:13;2.10;99.90
3816;DHT22;1923;48.154;11.536;2023-04-03T21:48:42;2.20;99.90
3816;DHT22;1923;48.154;11.536;2023-04-03T21:51:14;2.10;99.90
3816;DHT22;1923;48.154;11.536;2023-04-03T21:53:43;2.10;99.90
3816;DHT22;1923;48.154;11.536;2023-04-03T21:56:12;2.00;99.90
3816;DHT22;1923;48.154;11.536;2023-04-03T21:58:40;1.90;99.90
3816;DHT22;1923;48.154;11.536;2023-04-03T22:01:09;2.00;99.90
3816;DHT22;1923;48.154;11.536;2023-04-03T22:03:38;2.10;99.90
3816;DHT22;1923;48.154;11.536;2023-04-03T22:06:06;2.00;99.90
3816;DHT22;1923;48.154;11.536;2023-04-03T22:08:36;2.10;99.90
3816;DHT22;1923;48.154;11.536;2023-04-03T22:11:05;2.20;99.90
3816;DHT22;1923;48.154;11.536;2023-04-03T22:13:34;2.10;99.90
3816;DHT22;1923;48.154;11.536;2023-04-03T22:16:03;2.20;99.90
3816;DHT22;1923;48.154;11.536;2023-04-03T22:18:32;2.10;99.90
3816;DHT22;1923;48.154;11.536;2023-04-03T22:21:01;2.10;99.90
3816;DHT22;1923;48.154;11.536;2023-04-03T22:23:29;2.10;99.90
3816;DHT22;1923;48.154;11.536;2023-04-03T22:25:59;2.10;99.90
3816;DHT22;1923;48.154;11.536;2023-04-03T22:28:29;2.00;99.90
3816;DHT22;1923;48.154;11.536;2023-04-03T22:30:59;2.00;99.90
3816;DHT22;1923;48.154;11.536;2023-04-03T22:33:28;2.00;99.90
3816;DHT22;1923;48.154;11.536;2023-04-03T22:35:56;1.90;99.90
3816;DHT22;1923;48.154;11.536;2023-04-03T22:38:24;2.00;99.90
3816;DHT22;1923;48.154;11.536;2023-04-03T22:40:56;2.00;99.90
3816;DHT22;1923;48.154;11.536;2023-04-03T22:43:27;2.00;99.90
3816;DHT22;1923;48.154;11.536;2023-04-03T22:45:55;1.90;99.90
3816;DHT22;1923;48.154;11.536;2023-04-03T22:48:24;1.90;99.90
3816;DHT22;1923;48.154;11.536;2023-04-03T22:50:53;1.80;99.90
3816;DHT22;1923;48.154;11.536;2023-04-03T22:53:21;1.70;99.90
3816;DHT22;1923;48.154;11.536;2023-04-03T22:55:55;1.70;99.90
3816;DHT22;1923;48.154;11.536;2023-04-03T22:58:24;1.50;99.90
3816;DHT22;1923;48.154;11.536;2023-04-03T23:01:01;1.50;99.90
3816;DHT22;1923;48.154;11.536;2023-04-03T23:03:30;1.50;99.90
3816;DHT22;1923;48.154;11.536;2023-04-03T23:05:58;1.50;99.90
3816;DHT22;1923;48.154;11.536;2023-04-03T23:08:27;1.50;99.90
3816;DHT22;1923;48.154;11.536;2023-04-03T23:10:56;1.50;99.90
3816;DHT22;1923;48.154;11.536;2023-04-03T23:13:25;1.50;99.90
3816;DHT22;1923;48.154;11.536;2023-04-03T23:15:56;1.50;99.90
3816;DHT22;1923;48.154;11.536;2023-04-03T23:18:25;1.30;99.90
3816;DHT22;1923;48.154;11.536;2023-04-03T23:20:55;1.30;99.90
3816;DHT22;1923;48.154;11.536;2023-04-03T23:23:23;1.10;99.90
3816;DHT22;1923;48.154;11.536;2023-04-03T23:25:51;1.10;99.90
3816;DHT22;1923;48.154;11.536;2023-04-03T23:28:19;1.20;99.90
3816;DHT22;1923;48.154;11.536;2023-04-03T23:30:48;1.30;99.90
3816;DHT22;1923;48.154;11.536;2023-04-03T23:33:18;1.20;99.90
3816;DHT22;1923;48.154;11.536;2023-04-03T23:35:47;1.20;99.90
3816;DHT22;1923;48.154;11.536;2023-04-03T23:38:15;1.00;99.90
3816;DHT22;1923;48.154;11.536;2023-04-03T23:40:44;1.00;99.90
3816;DHT22;1923;48.154;11.536;2023-04-03T23:43:12;1.10;99.90
3816;DHT22;1923;48.154;11.536;2023-04-03T23:45:41;1.20;99.90
3816;DHT22;1923;48.154;11.536;2023-04-03T23:48:10;1.20;99.90
3816;DHT22;1923;48.154;11.536;2023-04-03T23:50:40;1.30;99.90
3816;DHT22;1923;48.154;11.536;2023-04-03T23:53:08;1.20;99.90
3816;DHT22;1923;48.154;11.536;2023-04-03T23:55:38;1.30;99.90
3816;DHT22;1923;48.154;11.536;2023-04-03T23:58:06;1.30;99.90
